Time;durP1;ratioP1;P1;durP2;ratioP2;P2;SDS_P1;SDS_P2;PMS_P1;PMS_P2;Temp;Humidity;BMP_temperature;BMP_pressure;BME280_temperature;BME280_humidity;BME280_pressure;Samples;Min_cycle;Max_cycle;Signal;HPM_P1;HPM_P2
2022/12/09 00:02:43;;;;;;;234.90;126.80;;;;;;;14.95;77.31;98989.97;4946921;28;20047;-63
2022/12/09 00:05:25;;;;;;;240.95;126.30;;;;;;;15.27;76.95;98996.63;4928846;29;20055;-65
2022/12/09 00:08:14;;;;;;;234.20;127.07;;;;;;;15.31;77.24;99001.56;4939805;29;20873;-64
2022/12/09 00:11:03;;;;;;;242.93;125.85;;;;;;;15.30;76.50;99006.13;4950233;29;20082;-64
2022/12/09 00:13:50;;;;;;;230.52;127.80;;;;;;;15.49;76.57;99009.50;4936010;29;20055;-64
2022/12/09 00:16:38;;;;;;;236.57;127.10;;;;;;;15.55;76.50;99011.25;4924580;28;20154;-64
2022/12/09 00:19:27;;;;;;;209.25;121.15;;;;;;;15.69;76.00;99008.28;4950664;28;20154;-65
2022/12/09 00:22:09;;;;;;;222.60;122.32;;;;;;;15.61;76.59;99014.91;4930717;29;20048;-64
2022/12/09 00:24:58;;;;;;;217.13;125.13;;;;;;;15.77;75.14;99011.47;4931101;29;20060;-64
2022/12/09 00:27:40;;;;;;;218.98;123.72;;;;;;;15.77;76.22;99007.97;4952165;28;20058;-64
2022/12/09 00:30:29;;;;;;;215.10;122.38;;;;;;;15.80;75.31;99002.88;4957537;28;20131;-62
2022/12/09 00:33:18;;;;;;;224.48;125.63;;;;;;;15.51;75.30;99004.69;4959941;28;20057;-64
2022/12/09 00:36:06;;;;;;;214.73;119.93;;;;;;;15.63;76.58;99000.09;4952455;28;20059;-64
2022/12/09 00:38:55;;;;;;;205.88;120.72;;;;;;;15.69;76.00;99009.13;4964333;28;20134;-64
2022/12/09 00:41:38;;;;;;;;;;;;;;;15.67;75.28;99005.84;4950154;29;20348;-66
2022/12/09 00:44:26;;;;;;;216.63;120.15;;;;;;;15.64;76.17;99011.72;4952671;28;20016;-65
2022/12/09 00:47:08;;;;;;;214.00;118.03;;;;;;;15.64;75.72;99017.13;4988213;28;20061;-64
2022/12/09 00:49:57;;;;;;;229.77;122.40;;;;;;;15.66;75.76;99020.41;4968537;28;20062;-64
2022/12/09 00:52:40;;;;;;;220.68;123.82;;;;;;;15.65;75.47;99024.19;4980064;28;20100;-64
2022/12/09 00:55:30;;;;;;;219.13;121.75;;;;;;;15.63;75.10;99037.16;4988092;28;20070;-64
2022/12/09 00:58:18;;;;;;;218.70;121.50;;;;;;;15.60;75.22;99037.63;4988074;28;20138;-64
2022/12/09 01:01:07;;;;;;;218.60;122.30;;;;;;;15.66;75.24;99034.75;4985965;28;20062;-64
2022/12/09 01:03:57;;;;;;;218.38;125.32;;;;;;;15.58;74.96;99043.25;4930957;29;20475;-64
2022/12/09 01:06:40;;;;;;;220.85;121.22;;;;;;;15.49;76.19;99041.16;4980018;28;20050;-64
2022/12/09 01:09:29;;;;;;;210.45;119.22;;;;;;;15.53;75.19;99048.56;4967006;28;20050;-64
2022/12/09 01:12:11;;;;;;;209.63;122.47;;;;;;;15.51;76.05;99049.84;4969134;28;20556;-63
2022/12/09 01:15:00;;;;;;;222.05;123.63;;;;;;;15.56;75.44;99053.50;4954988;28;20145;-63
2022/12/09 01:17:43;;;;;;;215.20;122.07;;;;;;;15.41;75.65;99056.69;4951076;28;20114;-64
2022/12/09 01:20:40;;;;;;;222.00;119.97;;;;;;;15.36;76.59;99058.44;4951158;28;20376;-64
2022/12/09 01:23:16;;;;;;;214.82;120.05;;;;;;;15.46;75.44;99064.91;4981711;28;20042;-64
2022/12/09 01:26:06;;;;;;;211.30;118.38;;;;;;;15.50;75.55;99070.69;4975498;28;20598;-63
2022/12/09 01:28:51;;;;;;;210.68;120.13;;;;;;;15.41;76.10;99066.69;4968071;28;20078;-64
2022/12/09 01:31:39;;;;;;;214.68;116.93;;;;;;;15.51;75.26;99060.69;4969988;28;20114;-64
2022/12/09 01:34:35;;;;;;;213.45;117.90;;;;;;;15.45;75.38;99062.44;4988238;28;20101;-63
2022/12/09 01:37:25;;;;;;;200.15;115.47;;;;;;;15.38;75.72;99068.00;4969637;28;20050;-64
2022/12/09 01:40:19;;;;;;;213.57;115.25;;;;;;;15.26;75.90;99056.34;4956243;28;20058;-64
2022/12/09 01:43:01;;;;;;;205.75;115.03;;;;;;;15.32;75.87;99065.41;4980687;28;20065;-64
2022/12/09 01:45:50;;;;;;;207.60;114.45;;;;;;;15.07;76.48;99070.00;4987667;28;20813;-64
2022/12/09 01:48:37;;;;;;;197.50;111.97;;;;;;;15.25;75.80;99070.94;4967108;28;20641;-64
2022/12/09 01:51:26;;;;;;;;;;;;;;;15.32;76.56;99079.72;4932343;29;20066;-64
2022/12/09 01:54:10;;;;;;;205.30;112.20;;;;;;;15.05;76.71;99080.19;4979029;28;19925;-64
2022/12/09 01:57:00;;;;;;;191.32;109.75;;;;;;;15.18;77.04;99089.16;4987625;28;20133;-64
2022/12/09 01:59:44;;;;;;;203.88;109.30;;;;;;;15.25;76.44;99095.28;4962674;28;20039;-64
2022/12/09 02:02:34;;;;;;;203.13;111.78;;;;;;;15.19;76.37;99101.59;4966255;28;20066;-64
2022/12/09 02:05:17;;;;;;;196.48;109.97;;;;;;;15.12;76.43;99101.72;4969465;28;20051;-64
2022/12/09 02:08:06;;;;;;;212.20;109.85;;;;;;;15.08;77.16;99114.88;4969554;28;20593;-64
2022/12/09 02:11:37;;;;;;;207.80;113.05;;;;;;;15.04;76.51;99121.81;4943308;28;20078;-64
2022/12/09 02:14:46;;;;;;;210.38;113.25;;;;;;;14.95;76.60;99127.78;4932612;28;20046;-65
2022/12/09 02:17:45;;;;;;;226.98;115.93;;;;;;;14.84;77.14;99137.53;4952847;28;20050;-64
2022/12/09 02:21:02;;;;;;;213.50;115.07;;;;;;;14.97;76.76;99147.31;4952898;28;20113;-64
2022/12/09 02:24:07;;;;;;;219.57;117.10;;;;;;;14.89;76.82;99143.06;4943822;28;20046;-64
2022/12/09 02:27:03;;;;;;;224.88;120.43;;;;;;;15.16;76.81;99150.75;4929160;28;20187;-65
2022/12/09 02:30:12;;;;;;;217.38;122.30;;;;;;;15.25;76.74;99158.28;4945256;28;20522;-65
2022/12/09 02:33:21;;;;;;;226.68;121.40;;;;;;;15.38;76.15;99159.94;4941254;28;20055;-67
2022/12/09 02:36:17;;;;;;;231.90;122.32;;;;;;;15.60;75.57;99159.34;4941002;28;20481;-65
2022/12/09 02:38:58;;;;;;;234.15;125.82;;;;;;;15.70;75.32;99162.28;4958723;28;20137;-64
2022/12/09 02:41:51;;;;;;;218.88;122.07;;;;;;;15.68;75.47;99164.41;4959867;28;20061;-64
2022/12/09 02:44:34;;;;;;;223.75;126.53;;;;;;;15.70;75.77;99167.69;4941036;28;20157;-64
2022/12/09 02:47:30;;;;;;;240.98;127.40;;;;;;;15.84;75.38;99163.72;4939887;28;20146;-65
2022/12/09 02:50:18;;;;;;;226.00;126.28;;;;;;;15.99;75.70;99159.69;4941921;28;20062;-64
2022/12/09 02:53:12;;;;;;;227.65;132.02;;;;;;;16.18;74.58;99161.19;4948033;28;20470;-64
2022/12/09 02:56:02;;;;;;;249.23;137.02;;;;;;;16.24;74.49;99164.78;4944245;28;20043;-65
2022/12/09 02:58:51;;;;;;;240.07;134.65;;;;;;;16.27;74.64;99172.44;4939097;28;20059;-64
2022/12/09 03:01:53;;;;;;;284.20;139.63;;;;;;;16.46;73.94;99183.94;4941306;28;20050;-64
2022/12/09 03:04:38;;;;;;;261.38;138.57;;;;;;;16.62;74.16;99185.91;4959507;28;20051;-64
2022/12/09 03:07:37;;;;;;;259.20;144.63;;;;;;;16.83;74.07;99187.13;4956988;28;20058;-64
2022/12/09 03:10:35;;;;;;;253.52;140.23;;;;;;;16.90;73.95;99188.84;4957610;28;21293;-65
2022/12/09 03:14:02;;;;;;;264.13;143.38;;;;;;;17.02;74.60;99185.03;4956968;28;20047;-64
2022/12/09 03:16:47;;;;;;;255.35;145.07;;;;;;;17.21;73.99;99179.34;4956157;28;20102;-65
2022/12/09 03:20:06;;;;;;;264.65;145.80;;;;;;;17.45;73.21;99188.16;4958551;28;20147;-66
2022/12/09 03:22:59;;;;;;;250.27;144.45;;;;;;;17.70;72.63;99190.44;4954845;28;20125;-64
2022/12/09 03:25:53;;;;;;;274.67;145.52;;;;;;;18.04;71.65;99187.69;4932945;29;20079;-65
2022/12/09 03:28:49;;;;;;;252.50;140.82;;;;;;;18.42;69.81;99196.88;4959643;28;20121;-64
2022/12/09 03:31:39;;;;;;;250.32;143.23;;;;;;;18.79;69.17;99193.47;4975059;28;20121;-65
2022/12/09 03:34:32;;;;;;;256.80;142.80;;;;;;;19.27;66.38;99190.94;4966352;28;20049;-65
2022/12/09 03:37:23;;;;;;;236.00;141.85;;;;;;;19.71;64.18;99202.44;4977538;28;20050;-64
2022/12/09 03:40:16;;;;;;;257.05;145.70;;;;;;;20.10;61.19;99210.34;4964973;28;20366;-65
2022/12/09 03:43:08;;;;;;;245.23;144.70;;;;;;;20.25;62.49;99206.03;4959717;28;20428;-64
2022/12/09 03:46:04;;;;;;;252.55;145.25;;;;;;;20.71;59.64;99206.22;4973552;28;20040;-64
2022/12/09 03:48:40;;;;;;;242.82;142.30;;;;;;;21.12;57.90;99209.06;4957152;28;20113;-65
2022/12/09 03:51:55;;;;;;;238.40;141.43;;;;;;;21.57;56.65;99221.13;4960881;28;20055;-65
2022/12/09 03:54:56;;;;;;;246.93;142.57;;;;;;;21.84;55.95;99217.25;4958669;28;20047;-65
2022/12/09 03:57:55;;;;;;;238.25;140.40;;;;;;;22.37;54.61;99220.41;4954447;28;20371;-65
2022/12/09 04:00:34;;;;;;;233.68;140.82;;;;;;;22.57;53.88;99224.19;4983106;28;20083;-65
2022/12/09 04:03:22;;;;;;;242.73;141.65;;;;;;;22.66;54.93;99223.31;4986694;28;20572;-66
2022/12/09 04:06:11;;;;;;;226.77;134.77;;;;;;;22.71;53.85;99230.66;4965820;28;20051;-64
2022/12/09 04:08:53;;;;;;;198.65;116.30;;;;;;;22.62;51.64;99240.53;4970985;28;20129;-65
2022/12/09 04:11:42;;;;;;;195.40;117.18;;;;;;;23.09;52.11;99231.03;4989524;28;20050;-65
2022/12/09 04:14:37;;;;;;;195.82;112.40;;;;;;;23.06;52.24;99234.31;4973700;28;20045;-65
2022/12/09 04:17:13;;;;;;;182.95;113.22;;;;;;;23.10;52.42;99237.31;4970666;28;20043;-64
2022/12/09 04:20:10;;;;;;;202.10;122.70;;;;;;;23.41;50.35;99248.88;4959539;28;20046;-65
2022/12/09 04:22:47;;;;;;;193.43;123.63;;;;;;;23.44;51.40;99245.56;4953636;28;20051;-65
2022/12/09 04:25:37;;;;;;;210.88;127.10;;;;;;;23.25;50.30;99239.94;4961098;28;20438;-66
2022/12/09 04:28:25;;;;;;;201.52;120.80;;;;;;;23.24;49.29;99252.81;4967493;28;20069;-63
2022/12/09 04:31:16;;;;;;;215.68;129.27;;;;;;;23.53;50.95;99263.00;4952020;28;20146;-65
2022/12/09 04:33:58;;;;;;;251.38;139.75;;;;;;;23.32;51.66;99254.13;4964649;28;20055;-64
2022/12/09 04:36:49;;;;;;;233.55;143.32;;;;;;;23.44;52.19;99253.78;4957658;28;20181;-62
2022/12/09 04:39:31;;;;;;;231.18;139.15;;;;;;;23.26;51.09;99242.41;4965115;28;20077;-65
2022/12/09 04:42:20;;;;;;;220.80;131.35;;;;;;;23.33;49.44;99238.50;4965307;28;20050;-65
2022/12/09 04:45:02;;;;;;;200.55;116.90;;;;;;;23.32;50.61;99239.63;4967612;28;20467;-65
2022/12/09 04:47:51;;;;;;;192.43;110.35;;;;;;;23.23;50.29;99256.69;4959625;28;20142;-66
2022/12/09 04:50:40;;;;;;;187.35;107.57;;;;;;;22.97;51.51;99247.75;4970963;28;20113;-63
2022/12/09 04:53:24;;;;;;;170.23;97.15;;;;;;;22.91;51.86;99253.53;4965394;28;20066;-65
2022/12/09 04:56:24;;;;;;;167.27;93.43;;;;;;;22.90;50.73;99254.66;4959456;28;20733;-65
2022/12/09 04:59:06;;;;;;;168.50;96.53;;;;;;;22.47;50.61;99255.94;4956596;28;20058;-64
2022/12/09 05:01:55;;;;;;;160.50;91.47;;;;;;;22.51;50.34;99258.94;4957312;28;20047;-63
2022/12/09 05:04:41;;;;;;;163.10;89.47;;;;;;;22.65;50.79;99261.88;4973511;28;20374;-63
2022/12/09 05:07:30;;;;;;;147.70;84.80;;;;;;;22.63;51.48;99261.34;4958938;28;20417;-63
2022/12/09 05:10:12;;;;;;;145.35;85.28;;;;;;;22.58;50.90;99255.88;4961223;28;20114;-63
2022/12/09 05:13:01;;;;;;;141.57;78.72;;;;;;;22.70;49.50;99264.59;4961117;28;20110;-63
2022/12/09 05:15:45;;;;;;;145.43;82.32;;;;;;;22.69;50.07;99262.97;4971622;28;20726;-63
2022/12/09 05:18:33;;;;;;;136.13;81.80;;;;;;;22.88;50.83;99263.94;4953741;28;20051;-65
2022/12/09 05:21:22;;;;;;;141.80;83.28;;;;;;;23.07;50.47;99263.34;4948992;29;20071;-65
2022/12/09 05:24:11;;;;;;;138.00;82.57;;;;;;;23.30;50.75;99259.09;4982082;28;20042;-65
2022/12/09 05:26:53;;;;;;;159.00;86.55;;;;;;;22.99;50.07;99256.50;4979500;28;20145;-66
2022/12/09 05:29:42;;;;;;;141.48;80.03;;;;;;;22.91;49.18;99253.53;4987334;28;20108;-65
2022/12/09 05:32:27;;;;;;;137.90;77.28;;;;;;;22.99;49.08;99250.22;4956924;28;20051;-65
2022/12/09 05:35:22;;;;;;;119.97;70.57;;;;;;;23.21;49.59;99256.13;4959537;28;20051;-65
2022/12/09 05:37:59;;;;;;;112.72;66.05;;;;;;;23.56;49.08;99253.41;4957366;28;20051;-65
2022/12/09 05:40:49;;;;;;;101.95;61.95;;;;;;;23.76;48.34;99252.41;4939324;28;20050;-64
2022/12/09 05:43:30;;;;;;;115.22;62.90;;;;;;;23.73;47.56;99253.81;4956583;28;20066;-64
2022/12/09 05:46:28;;;;;;;123.78;67.50;;;;;;;24.26;46.66;99249.47;4965898;28;20142;-65
2022/12/09 05:49:04;;;;;;;118.50;66.80;;;;;;;24.40;47.18;99245.75;4952597;28;20043;-64
2022/12/09 05:51:59;;;;;;;113.20;69.57;;;;;;;24.39;46.80;99241.34;4960832;28;20047;-62
2022/12/09 05:54:36;;;;;;;118.88;64.00;;;;;;;24.68;46.01;99237.75;4957261;28;20116;-62
2022/12/09 05:57:31;;;;;;;114.70;63.75;;;;;;;24.47;45.00;99239.91;4959599;28;20055;-64
2022/12/09 06:00:08;;;;;;;110.85;63.67;;;;;;;24.59;46.59;99242.25;4956320;28;20101;-62
2022/12/09 06:02:57;;;;;;;127.38;67.25;;;;;;;24.62;45.39;99237.00;4957121;28;20654;-64
2022/12/09 06:05:39;;;;;;;111.70;65.05;;;;;;;24.69;47.10;99231.16;4958976;28;20652;-64
2022/12/09 06:08:29;;;;;;;116.43;66.50;;;;;;;24.76;45.89;99228.88;4952284;28;20047;-64
2022/12/09 06:11:20;;;;;;;120.88;66.22;;;;;;;25.06;46.45;99218.53;4955895;28;20051;-63
2022/12/09 06:14:10;;;;;;;114.03;66.60;;;;;;;24.85;44.39;99217.22;4961914;28;20102;-65
2022/12/09 06:16:52;;;;;;;119.20;66.03;;;;;;;24.40;45.25;99217.47;4961863;28;20418;-65
2022/12/09 06:19:41;;;;;;;110.88;64.70;;;;;;;24.69;46.83;99214.69;4976372;28;20046;-64
2022/12/09 06:22:24;;;;;;;128.18;69.60;;;;;;;24.71;45.49;99217.13;4958527;28;20050;-64
2022/12/09 06:25:13;;;;;;;116.28;68.10;;;;;;;24.84;47.11;99204.59;4964080;28;20102;-66
2022/12/09 06:27:57;;;;;;;110.13;64.82;;;;;;;25.23;46.77;99195.25;4956158;28;20106;-64
2022/12/09 06:30:46;;;;;;;118.03;68.20;;;;;;;25.39;45.45;99188.38;4954275;28;20061;-63
2022/12/09 06:33:43;;;;;;;122.18;68.70;;;;;;;24.73;45.77;99187.47;4962978;28;20122;-64
2022/12/09 06:36:30;;;;;;;114.35;65.65;;;;;;;25.13;45.60;99188.78;4955663;28;20292;-62
2022/12/09 06:39:18;;;;;;;122.35;67.88;;;;;;;25.15;45.87;99185.75;4954323;28;20063;-62
2022/12/09 06:42:07;;;;;;;128.20;71.32;;;;;;;25.22;47.22;99177.91;4953487;28;20609;-61
2022/12/09 06:44:49;;;;;;;119.45;71.80;;;;;;;24.96;48.83;99177.53;4965910;28;20128;-61
2022/12/09 06:47:38;;;;;;;134.63;73.57;;;;;;;25.19;47.97;99176.59;4965976;28;20046;-61
2022/12/09 06:50:20;;;;;;;162.73;88.00;;;;;;;24.72;47.01;99170.16;4964049;28;20046;-61
2022/12/09 06:53:10;;;;;;;151.93;85.90;;;;;;;24.67;46.99;99162.03;4966012;28;20054;-63
2022/12/09 06:55:52;;;;;;;153.32;86.93;;;;;;;25.03;48.22;99161.50;4966421;28;20070;-61
2022/12/09 06:58:51;;;;;;;151.52;86.30;;;;;;;25.08;46.97;99153.16;4955739;28;20058;-61
2022/12/09 07:01:46;;;;;;;162.52;90.28;;;;;;;25.02;48.22;99144.19;4958607;28;20857;-62
2022/12/09 07:04:23;;;;;;;172.80;96.35;;;;;;;25.04;47.07;99132.91;4955646;28;20150;-62
2022/12/09 07:07:13;;;;;;;164.15;93.78;;;;;;;25.01;47.00;99138.97;4956205;28;20133;-62
2022/12/09 07:09:55;;;;;;;170.15;95.68;;;;;;;25.10;48.93;99120.72;4947839;28;20675;-62
2022/12/09 07:12:44;;;;;;;196.23;108.38;;;;;;;25.21;47.16;99127.66;4951245;28;20707;-64
2022/12/09 07:15:33;;;;;;;188.75;106.47;;;;;;;25.14;48.42;99127.22;4956224;28;20070;-64
2022/12/09 07:18:16;;;;;;;189.82;106.40;;;;;;;25.33;47.75;99118.16;4956266;28;20059;-64
2022/12/09 07:21:15;;;;;;;202.23;106.47;;;;;;;25.24;48.23;99111.72;4955062;28;20727;-64
2022/12/09 07:24:02;;;;;;;203.60;108.05;;;;;;;24.91;47.63;99106.22;4965844;28;20051;-64
2022/12/09 07:26:52;;;;;;;204.27;115.93;;;;;;;24.90;48.33;99094.41;4966942;28;20109;-63
2022/12/09 07:29:35;;;;;;;205.57;114.10;;;;;;;24.99;49.70;99094.53;4984832;28;20068;-62
2022/12/09 07:32:25;;;;;;;194.35;105.13;;;;;;;25.08;48.53;99089.19;4971502;28;20063;-62
2022/12/09 07:35:09;;;;;;;130.45;73.90;;;;;;;24.88;46.73;99090.31;4977430;28;20053;-64
2022/12/09 07:37:57;;;;;;;83.20;44.17;;;;;;;24.60;45.80;99087.47;4957889;28;20066;-64
2022/12/09 07:40:40;;;;;;;66.88;34.25;;;;;;;24.82;44.30;99092.34;4954444;28;20106;-62
2022/12/09 07:43:29;;;;;;;57.05;29.02;;;;;;;24.60;44.22;99080.06;4951320;28;20054;-63
2022/12/09 07:46:15;;;;;;;40.00;23.52;;;;;;;24.94;43.56;99076.22;4975989;28;20149;-63
2022/12/09 07:49:06;;;;;;;41.38;23.38;;;;;;;25.34;44.71;99071.16;4974197;28;20066;-62
2022/12/09 07:51:48;;;;;;;39.10;23.05;;;;;;;25.56;43.06;99064.97;4971738;28;20057;-63
2022/12/09 07:54:37;;;;;;;47.72;21.33;;;;;;;24.94;43.84;99053.47;4965905;28;20058;-64
2022/12/09 07:57:19;;;;;;;33.42;20.52;;;;;;;25.33;45.05;99055.78;4958597;28;20716;-63
2022/12/09 08:00:09;;;;;;;32.10;18.55;;;;;;;25.46;42.96;99045.94;4958055;28;20051;-62
2022/12/09 08:02:52;;;;;;;25.27;17.02;;;;;;;25.47;42.72;99042.09;4955610;28;20059;-65
2022/12/09 08:05:41;;;;;;;21.75;13.93;;;;;;;25.39;42.54;99035.38;4955703;28;20058;-64
2022/12/09 08:08:23;;;;;;;24.58;12.10;;;;;;;25.43;41.35;99035.53;4957684;28;20047;-65
2022/12/09 08:11:28;;;;;;;20.67;11.35;;;;;;;25.77;41.27;99028.81;4961790;28;20055;-63
2022/12/09 08:14:12;;;;;;;24.75;12.63;;;;;;;25.81;41.16;99023.53;4957973;28;20054;-66
2022/12/09 08:17:01;;;;;;;46.72;12.52;;;;;;;25.73;41.74;99019.56;4961558;28;20664;-64
2022/12/09 08:19:43;;;;;;;27.45;13.13;;;;;;;25.73;41.81;99023.13;4946412;28;20065;-65
2022/12/09 08:22:32;;;;;;;21.58;11.45;;;;;;;25.63;40.58;99011.53;4961341;28;20067;-66
2022/12/09 08:25:16;;;;;;;19.90;11.07;;;;;;;25.54;40.32;99003.19;4957972;28;20180;-66
2022/12/09 08:28:04;;;;;;;20.90;11.80;;;;;;;25.62;40.84;99001.66;4961299;28;20062;-66
2022/12/09 08:30:46;;;;;;;19.20;11.95;;;;;;;25.78;41.46;98992.78;4965280;28;20061;-65
2022/12/09 08:33:36;;;;;;;26.92;13.27;;;;;;;25.41;41.54;98985.56;4960837;28;20568;-64
2022/12/09 08:36:24;;;;;;;28.90;13.18;;;;;;;25.58;41.67;98982.22;4960642;28;20047;-63
2022/12/09 08:39:14;;;;;;;27.52;13.95;;;;;;;25.63;41.86;98981.31;4957298;28;20071;-63
2022/12/09 08:41:57;;;;;;;27.25;14.10;;;;;;;25.71;41.43;98973.13;4962798;28;20166;-64
2022/12/09 08:44:49;;;;;;;22.20;14.50;;;;;;;25.45;43.12;98978.38;4957112;28;20093;-65
2022/12/09 08:47:40;;;;;;;25.58;14.57;;;;;;;25.30;42.35;98975.91;4963812;28;20051;-65
2022/12/09 08:50:29;;;;;;;34.65;15.93;;;;;;;25.66;42.61;98969.69;4961805;28;20051;-65
2022/12/09 08:53:11;;;;;;;31.13;14.60;;;;;;;25.72;41.79;98965.69;4969458;28;20158;-63
2022/12/09 08:56:00;;;;;;;25.65;14.38;;;;;;;26.02;42.23;98963.44;4968329;28;20066;-65
2022/12/09 08:58:42;;;;;;;25.55;13.70;;;;;;;25.86;41.92;98957.44;4962459;28;20061;-63
2022/12/09 09:01:33;;;;;;;21.55;13.23;;;;;;;25.78;41.54;98959.00;4963650;28;20076;-64
2022/12/09 09:04:22;;;;;;;32.70;13.73;;;;;;;25.54;41.75;98945.47;4958730;28;20062;-63
2022/12/09 09:07:12;;;;;;;29.90;14.35;;;;;;;25.35;42.52;98956.59;4943590;28;20050;-62
2022/12/09 09:10:08;;;;;;;28.13;15.45;;;;;;;25.75;42.66;98949.41;4951519;28;20047;-61
2022/12/09 09:12:45;;;;;;;32.08;15.90;;;;;;;25.37;43.18;98946.94;4976484;28;20089;-63
2022/12/09 09:15:37;;;;;;;44.37;14.90;;;;;;;25.27;43.48;98949.06;4975029;28;20050;-63
2022/12/09 09:18:21;;;;;;;26.75;16.65;;;;;;;25.66;43.18;98942.19;4972163;28;20046;-62
2022/12/09 09:21:17;;;;;;;26.35;15.77;;;;;;;25.39;43.04;98949.34;4973751;28;20050;-62
2022/12/09 09:23:54;;;;;;;22.38;14.10;;;;;;;25.29;42.02;98949.56;4961614;28;20043;-62
2022/12/09 09:26:44;;;;;;;23.13;12.13;;;;;;;25.23;41.71;98937.06;4959334;28;20050;-62
2022/12/09 09:29:28;;;;;;;20.45;11.45;;;;;;;25.37;41.24;98932.38;4958345;28;20644;-64
2022/12/09 09:32:23;;;;;;;20.95;12.60;;;;;;;25.27;41.76;98933.38;4954731;28;20055;-63
2022/12/09 09:35:13;;;;;;;21.23;11.50;;;;;;;25.33;42.56;98926.66;4960447;28;20044;-65
2022/12/09 09:38:08;;;;;;;29.88;13.77;;;;;;;25.36;43.14;98936.25;4952466;28;20047;-67
2022/12/09 09:40:45;;;;;;;27.73;14.02;;;;;;;25.24;43.62;98927.69;4948251;28;20141;-70
2022/12/09 09:43:43;;;;;;;20.52;12.63;;;;;;;25.43;43.07;98924.84;4949585;28;20055;-68
2022/12/09 09:46:34;;;;;;;30.73;11.52;;;;;;;25.51;43.12;98924.09;4949948;28;20532;-65
2022/12/09 09:49:54;;;;;;;24.02;10.88;;;;;;;25.28;42.01;98915.81;4951517;28;20055;-66
2022/12/09 09:52:37;;;;;;;32.33;11.52;;;;;;;24.99;41.70;98927.88;4971979;28;20103;-61
2022/12/09 09:55:48;;;;;;;23.48;10.65;;;;;;;24.99;41.80;98924.28;4969863;28;20043;-61
2022/12/09 09:58:50;;;;;;;20.67;9.02;;;;;;;24.92;41.07;98921.97;4961693;28;20130;-61
2022/12/09 10:01:35;;;;;;;14.30;7.38;;;;;;;25.18;41.58;98905.81;4961333;28;20055;-64
2022/12/09 10:04:57;;;;;;;17.20;7.55;;;;;;;24.72;40.56;98909.41;4958324;28;20130;-65
2022/12/09 10:07:53;;;;;;;20.88;8.93;;;;;;;24.85;41.39;98907.00;4959264;28;20411;-63
2022/12/09 10:11:07;;;;;;;19.92;8.27;;;;;;;24.87;41.05;98905.59;4956426;28;20085;-61
2022/12/09 10:14:16;;;;;;;25.10;8.98;;;;;;;24.88;41.91;98892.66;4950998;28;20055;-63
2022/12/09 10:17:11;;;;;;;26.88;9.05;;;;;;;25.10;42.13;98895.53;4957636;28;20686;-64
2022/12/09 10:20:12;;;;;;;19.65;8.85;;;;;;;24.89;42.63;98897.06;4955986;28;20078;-63
2022/12/09 10:23:05;;;;;;;21.50;8.98;;;;;;;24.97;42.25;98888.09;4957140;28;20122;-63
2022/12/09 10:26:05;;;;;;;18.70;7.90;;;;;;;24.90;42.68;98891.25;4967173;28;20054;-59
2022/12/09 10:28:52;;;;;;;14.98;8.95;;;;;;;24.80;43.03;98885.94;4957137;28;20420;-60
2022/12/09 10:31:47;;;;;;;21.10;7.65;;;;;;;24.47;42.26;98882.44;4961727;28;20055;-59
2022/12/09 10:34:30;;;;;;;15.55;7.90;;;;;;;24.66;42.38;98876.91;4950861;28;20058;-60
2022/12/09 10:37:45;;;;;;;21.27;8.25;;;;;;;24.62;42.62;98873.94;4955583;28;20047;-60
2022/12/09 10:40:51;;;;;;;20.45;9.30;;;;;;;24.61;43.04;98875.06;4953077;28;20062;-62
2022/12/09 10:43:45;;;;;;;30.75;12.18;;;;;;;24.45;44.44;98877.25;4951460;28;20091;-68
2022/12/09 10:46:27;;;;;;;38.05;14.43;;;;;;;24.44;43.57;98867.41;4960735;28;20050;-62
2022/12/09 10:49:25;;;;;;;27.80;12.30;;;;;;;24.30;43.26;98872.81;4959962;28;20056;-63
2022/12/09 10:52:21;;;;;;;24.55;12.23;;;;;;;24.18;44.37;98869.75;4955909;28;20645;-63
2022/12/09 10:55:11;;;;;;;26.20;9.80;;;;;;;23.96;44.39;98863.00;4957905;28;20118;-63
2022/12/09 10:58:17;;;;;;;22.58;9.93;;;;;;;24.07;44.21;98858.13;4957641;28;20055;-64
2022/12/09 11:01:15;;;;;;;24.83;10.02;;;;;;;23.93;46.00;98855.34;4938130;28;20150;-61
2022/12/09 11:03:58;;;;;;;29.97;9.10;;;;;;;23.83;45.14;98856.34;4953267;28;20066;-61
2022/12/09 11:06:47;;;;;;;14.07;8.65;;;;;;;23.82;46.21;98859.38;4947985;28;20114;-64
2022/12/09 11:09:36;;;;;;;18.00;8.88;;;;;;;23.79;45.60;98852.56;4947341;28;20785;-63
2022/12/09 11:12:35;;;;;;;23.02;9.65;;;;;;;23.85;46.03;98856.03;4959968;28;20113;-63
2022/12/09 11:15:26;;;;;;;21.05;9.18;;;;;;;23.77;47.54;98852.03;4965769;28;20066;-60
2022/12/09 11:18:35;;;;;;;19.58;8.63;;;;;;;23.74;47.50;98857.28;4956208;28;20150;-61
2022/12/09 11:21:41;;;;;;;21.20;10.13;;;;;;;23.45;49.24;98858.25;4951978;28;20055;-63
2022/12/09 11:24:31;;;;;;;27.42;10.25;;;;;;;23.58;48.91;98856.69;4947248;28;20051;-62
2022/12/09 11:27:37;;;;;;;20.05;9.93;;;;;;;23.45;50.33;98859.06;4956540;28;20070;-63
2022/12/09 11:30:29;;;;;;;26.17;10.23;;;;;;;23.42;49.52;98858.81;4958220;28;20487;-64
2022/12/09 11:33:35;;;;;;;41.22;11.27;;;;;;;23.25;49.40;98862.06;4960515;28;20054;-61
2022/12/09 11:36:32;;;;;;;26.33;10.52;;;;;;;23.32;48.37;98858.97;4944079;28;20419;-61
2022/12/09 11:39:32;;;;;;;19.13;10.27;;;;;;;23.40;48.71;98855.56;4960528;28;20046;-64
2022/12/09 11:42:23;;;;;;;24.63;10.32;;;;;;;23.37;48.55;98858.88;4958558;28;20078;-64
2022/12/09 11:45:12;;;;;;;24.77;11.10;;;;;;;23.28;48.84;98860.69;4963754;28;20146;-62
2022/12/09 11:48:26;;;;;;;36.33;12.25;;;;;;;23.24;49.46;98864.00;4958083;28;20455;-59
2022/12/09 11:51:47;;;;;;;36.45;14.68;;;;;;;23.08;52.10;98868.03;4951190;28;20066;-64
2022/12/09 11:54:55;;;;;;;54.78;22.85;;;;;;;22.97;51.21;98864.56;4960436;28;20055;-61
2022/12/09 11:57:50;;;;;;;65.60;28.15;;;;;;;22.94;52.44;98858.88;4952681;28;20063;-63
2022/12/09 12:00:50;;;;;;;71.00;30.63;;;;;;;22.74;53.43;98855.25;4965408;28;20439;-61
2022/12/09 12:03:43;;;;;;;55.97;26.20;;;;;;;22.56;54.08;98854.06;4622779;28;10001178;-60
2022/12/09 12:07:17;;;;;;;59.33;23.23;;;;;;;22.43;55.18;98861.06;4975645;28;20486;-60
2022/12/09 12:10:05;;;;;;;62.67;20.60;;;;;;;22.21;56.56;98864.22;4902165;29;20084;-60
2022/12/09 12:13:22;;;;;;;44.53;19.58;;;;;;;22.14;57.17;98860.19;4964796;28;20043;-61
2022/12/09 12:16:11;;;;;;;52.22;18.67;;;;;;;21.96;57.75;98862.53;4955306;28;20058;-58
2022/12/09 12:19:05;;;;;;;38.60;16.80;;;;;;;21.88;57.94;98865.88;4959738;28;20043;-61
2022/12/09 12:22:25;;;;;;;40.80;16.98;;;;;;;21.88;57.39;98860.41;4961828;28;20069;-60
2022/12/09 12:25:43;;;;;;;45.33;17.25;;;;;;;21.71;58.66;98869.00;4958792;28;20040;-60
2022/12/09 12:28:39;;;;;;;43.05;18.55;;;;;;;21.68;58.61;98870.38;4958829;28;20058;-61
2022/12/09 12:31:27;;;;;;;72.25;28.65;;;;;;;21.56;59.18;98869.91;4961861;28;20061;-60
2022/12/09 12:34:31;;;;;;;77.22;31.98;;;;;;;21.47;59.59;98871.59;4961744;28;20137;-60
2022/12/09 12:37:46;;;;;;;91.88;36.15;;;;;;;21.39;59.49;98874.91;4963140;28;20129;-59
2022/12/09 12:41:26;;;;;;;109.75;47.70;;;;;;;21.31;60.17;98885.28;4962545;28;20059;-52
2022/12/09 12:47:27;;;;;;;134.90;50.40;;;;;;;21.21;60.43;98881.78;4962271;28;20126;-62
2022/12/09 12:50:31;;;;;;;130.02;50.80;;;;;;;21.09;60.46;98887.56;4958620;28;20668;-60
2022/12/09 12:53:38;;;;;;;121.03;48.90;;;;;;;21.06;60.87;98888.94;4959434;28;20479;-62
2022/12/09 12:56:33;;;;;;;120.75;46.10;;;;;;;21.05;60.85;98894.69;4960966;28;20047;-62
2022/12/09 12:59:59;;;;;;;116.75;44.75;;;;;;;21.07;60.28;98890.56;4966980;28;20098;-60
2022/12/09 13:03:03;;;;;;;102.07;38.47;;;;;;;21.00;60.30;98895.53;4962195;28;20046;-61
2022/12/09 13:05:58;;;;;;;101.72;34.40;;;;;;;21.01;60.54;98894.41;4954701;28;20058;-58